METAR stanice u blizini

 

LYBE - Beograd / Surčin, Srbija
Ažurirano: 21/02/2020 01:30
Partly Cloudy
Partly Cloudy
 Pravac vetra J
Vetar: J 9 km/h
Temperatura: 2°C
Osećaj hladnoće: -1°C
Tačka rose: 1°C
Vlažnost: 93%
Pritisak: 1024 hPa
Oblaci: Partly Cloudy
Vidljivost: 6 km
2020/02/21 00:30 LYBE 210030Z 18005KT 6000 NSC 02/01 Q1024 NOSIG
LYBT - Beograd / Batajnica, Srbija
Ažurirano: 21/02/2020 01:30
Partly Cloudy
Partly Cloudy
 Pravac vetra J
Vetar: J 6 km/h
Temperatura: -2°C
Tačka rose: -2°C
Vlažnost: 100%
Pritisak: 1024 hPa
Oblaci: Partly Cloudy
Vidljivost: 6 km
2020/02/21 00:30 LYBT 210030Z 19003KT 6000 NSC M02/M02 Q1024 NOSIG
LYVR - Vršac, Srbija
Ažurirano: 21/02/2020 01:30
Vedro
Vedro
 Pravac vetra ISI
Vetar: ISI 6 km/h
Temperatura: -3°C
Tačka rose: -4°C
Vlažnost: 93%
Pritisak: 1024 hPa
Pregled: Vedro
Vidljivost: greater than 10 km
2020/02/21 00:30 LYVR 210030Z AUTO 07003KT CAVOK M03/M04 Q1024
 
LYKV - Lađevci, Srbija
Ažurirano: 21/02/2020 01:30
Vedro
Vedro
 Pravac vetra SSI
Vetar: SSI 4 km/h
Temperatura: -2°C
Tačka rose: -2°C
Vlažnost: 100%
Pritisak: 1025 hPa
Pregled: Vedro
Vidljivost: greater than 10 km
2020/02/21 00:30 LYKV 210030Z 03002KT CAVOK M02/M02 Q1025 NOSIG
LYNI - Niš, Srbija
Ažurirano: 21/02/2020 01:30
Mostly Cloudy
Mostly Cloudy
 Pravac vetra varies
Vetar: varies 4 km/h
Temperatura: 4°C
Tačka rose: -1°C
Vlažnost: 70%
Pritisak: 1023 hPa
Oblaci: Mostly Cloudy
Vidljivost: 10 km
Cloud details: Mostly Cloudy 1524 m
2020/02/21 00:30 LYNI 210030Z VRB02KT 9999 BKN050 04/M01 Q1023 NOSIG
BKPR - Priština, Srbija
Ažurirano: 21/02/2020 01:30
Mostly Cloudy
Mostly Cloudy
 Pravac vetra varies
Vetar: varies 2 km/h
Temperatura: 0°C
Tačka rose: -5°C
Vlažnost: 69%
Pritisak: 1022 hPa
Oblaci: Mostly Cloudy
Vidljivost: 10 km
Cloud details: Mostly Cloudy 1676 m
2020/02/21 00:30 BKPR 210030Z VRB01KT 9999 BKN055 M00/M05 Q1022 NOSIG RMK 17190095
 
LHPP - Pecs / Pogany, Hungary
Ažurirano: 20/02/2020 18:45
NOT Current
Vedro
Vedro
 Pravac vetra ZSZ
Vetar: ZSZ 6 km/h
Temperatura: 6°C
Tačka rose: -5°C
Vlažnost: 46%
Pritisak: 1024 hPa
Pregled: Vedro
Vidljivost: greater than 10 km
2020/02/20 17:45 LHPP 201745Z 30003KT CAVOK 06/M05 Q1024
LHUD - Szeged, Hungary
Ažurirano: 04/07/2019 01:45
NOT Current
Vedro
Vedro
 Pravac vetra S
Vetar: S 7 km/h
Temperatura: 18°C
Tačka rose: 13°C
Vlažnost: 73%
Pritisak: 1019 hPa
Pregled: Vedro
Vidljivost: greater than 10 km
2019/07/03 23:45 LHUD 032345Z 35004KT CAVOK 18/13 Q1019
LRTR - Timisoara, Romania
Ažurirano: 21/02/2020 01:00
Vedro
Vedro
 Pravac vetra S
Vetar: S 4 km/h
Temperatura: -1°C
Tačka rose: -1°C
Vlažnost: 100%
Pritisak: 1024 hPa
Pregled: Vedro
Vidljivost: greater than 10 km
2020/02/21 00:00 LRTR 210000Z 36002KT CAVOK M01/M01 Q1024
 
LRCV - Craiova, Romania
Ažurirano: 21/02/2020 01:00
Vedro
Vedro
 Pravac vetra SSZ
Vetar: SSZ 4 km/h
Temperatura: 3°C
Tačka rose: 3°C
Vlažnost: 100%
Pritisak: 1021 hPa
Pregled: Vedro
Vidljivost: greater than 10 km
2020/02/21 00:00 LRCV 210000Z 34002KT CAVOK 03/03 Q1021 R27/29//95
LBSF - Sofia, Bulgaria
Ažurirano: 21/02/2020 01:30
Oblačno
Oblačno
 Pravac vetra Z
Vetar: Z 15 km/h
Temperatura: 2°C
Osećaj hladnoće: -2°C
Tačka rose: 0°C
Vlažnost: 87%
Pritisak: 1020 hPa
Oblaci: Oblačno
Vidljivost: 10 km
Cloud details: Few Clouds 671 m
Partly Cloudy 853 m
Oblačno 1219 m
2020/02/21 00:30 LBSF 210030Z 27008KT 9999 FEW022 SCT028 OVC040 02/00 Q1020 R99/29//95 NOSIG
LWSK - Skoplje, Makedonija
Ažurirano: 21/02/2020 01:30
Mostly Cloudy
Mostly Cloudy
 Pravac vetra S
Vetar: S 4 km/h
Temperatura: 5°C
Tačka rose: -3°C
Vlažnost: 57%
Pritisak: 1023 hPa
Oblaci: Mostly Cloudy
Vidljivost: 10 km
Cloud details: Partly Cloudy 1524 m
Mostly Cloudy 2438 m
2020/02/21 00:30 LWSK 210030Z 36002KT 9999 SCT050 BKN080 05/M03 Q1023 NOSIG
 
LYPG - Podgorica, Crna Gora
Ažurirano: 21/02/2020 01:30
Vedro
Vedro
 Pravac vetra SSZ
Vetar: SSZ 15 km/h
Temperatura: 7°C
Osećaj hladnoće: 4°C
Tačka rose: -6°C
Vlažnost: 39%
Pritisak: 1022 hPa
Pregled: Vedro
Vidljivost: greater than 10 km
2020/02/21 00:30 LYPG 210030Z 34008KT CAVOK 07/M06 Q1022 NOSIG
LQSA - Sarajevo, Bosna i Hercegovina
Ažurirano: 21/02/2020 01:00
Vedro
Vedro
 Pravac vetra SZ
Vetar: SZ 2 km/h
Temperatura: -4°C
Tačka rose: -4°C
Vlažnost: 100%
Pritisak: 1024 hPa
Pregled: Vedro
Vidljivost: greater than 10 km
2020/02/21 00:00 LQSA 210000Z 32001KT CAVOK M04/M04 Q1024
LDOS - Osijek, Hrvatksa
Ažurirano: 21/02/2020 01:30
Vedro
Vedro
 Pravac vetra JJI
Vetar: JJI 6 km/h
Temperatura: -2°C
Tačka rose: -4°C
Vlažnost: 86%
Pritisak: 1023 hPa
Pregled: Vedro
Vidljivost: greater than 10 km
2020/02/21 00:30 LDOS 210030Z 16003KT CAVOK M02/M04 Q1023